sensor_id;sensor_type;location;lat;lon;timestamp;pressure;altitude;pressure_sealevel;temperature;humidity
68366;BME280;55283;51.466;5.478;2023-02-21T00:01:01;101953.59;;;19.99;47.43
68366;BME280;55283;51.466;5.478;2023-02-21T00:03:45;101955.59;;;19.98;47.38
68366;BME280;55283;51.466;5.478;2023-02-21T00:06:29;101941.66;;;19.91;47.40
68366;BME280;55283;51.466;5.478;2023-02-21T00:09:13;101960.00;;;19.99;47.31
68366;BME280;55283;51.466;5.478;2023-02-21T00:11:57;101954.00;;;19.97;47.18
68366;BME280;55283;51.466;5.478;2023-02-21T00:14:41;101953.25;;;19.93;47.21
68366;BME280;55283;51.466;5.478;2023-02-21T00:17:25;101958.38;;;19.98;47.10
68366;BME280;55283;51.466;5.478;2023-02-21T00:20:09;101961.63;;;19.97;47.23
68366;BME280;55283;51.466;5.478;2023-02-21T00:22:53;101958.44;;;19.91;47.31
68366;BME280;55283;51.466;5.478;2023-02-21T00:25:37;101955.63;;;19.95;47.13
68366;BME280;55283;51.466;5.478;2023-02-21T00:28:21;101961.19;;;19.98;46.93
68366;BME280;55283;51.466;5.478;2023-02-21T00:31:05;101960.44;;;19.94;47.27
68366;BME280;55283;51.466;5.478;2023-02-21T00:33:49;101958.81;;;19.97;47.12
68366;BME280;55283;51.466;5.478;2023-02-21T00:36:33;101963.22;;;19.94;47.24
68366;BME280;55283;51.466;5.478;2023-02-21T00:39:17;101955.63;;;19.95;47.29
68366;BME280;55283;51.466;5.478;2023-02-21T00:42:01;101961.66;;;19.93;47.41
68366;BME280;55283;51.466;5.478;2023-02-21T00:44:45;101956.41;;;19.95;47.24
68366;BME280;55283;51.466;5.478;2023-02-21T00:47:29;101962.00;;;19.95;47.08
68366;BME280;55283;51.466;5.478;2023-02-21T00:50:13;101944.06;;;19.89;47.19
68366;BME280;55283;51.466;5.478;2023-02-21T00:52:57;101960.44;;;19.94;47.17
68366;BME280;55283;51.466;5.478;2023-02-21T00:55:41;101952.81;;;19.95;47.09
68366;BME280;55283;51.466;5.478;2023-02-21T00:58:25;101951.25;;;19.94;47.26
68366;BME280;55283;51.466;5.478;2023-02-21T01:01:09;101934.06;;;19.92;47.12
68366;BME280;55283;51.466;5.478;2023-02-21T01:03:53;101931.28;;;19.88;47.24
68366;BME280;55283;51.466;5.478;2023-02-21T01:06:37;101935.25;;;19.94;47.07
68366;BME280;55283;51.466;5.478;2023-02-21T01:09:21;101930.03;;;19.96;47.02
68366;BME280;55283;51.466;5.478;2023-02-21T01:12:05;101928.44;;;19.95;47.03
68366;BME280;55283;51.466;5.478;2023-02-21T01:14:49;101928.84;;;19.94;47.30
68366;BME280;55283;51.466;5.478;2023-02-21T01:17:33;101926.84;;;19.94;47.37
68366;BME280;55283;51.466;5.478;2023-02-21T01:20:17;101937.22;;;19.97;46.89
68366;BME280;55283;51.466;5.478;2023-02-21T01:23:01;101928.84;;;19.94;46.91
68366;BME280;55283;51.466;5.478;2023-02-21T01:25:45;101928.44;;;19.95;46.96
68366;BME280;55283;51.466;5.478;2023-02-21T01:28:29;101928.81;;;19.97;47.18
68366;BME280;55283;51.466;5.478;2023-02-21T01:31:17;101918.84;;;19.93;47.21
68366;BME280;55283;51.466;5.478;2023-02-21T01:34:02;101917.22;;;19.95;46.88
68366;BME280;55283;51.466;5.478;2023-02-21T01:36:45;101907.66;;;19.93;47.00
68366;BME280;55283;51.466;5.478;2023-02-21T01:39:30;101913.25;;;19.96;46.79
68366;BME280;55283;51.466;5.478;2023-02-21T01:42:13;101916.88;;;19.93;47.00
68366;BME280;55283;51.466;5.478;2023-02-21T01:48:06;101921.28;;;19.90;47.00
68366;BME280;55283;51.466;5.478;2023-02-21T01:50:51;101926.84;;;19.94;46.90
68366;BME280;55283;51.466;5.478;2023-02-21T01:53:35;101915.69;;;19.87;46.93
68366;BME280;55283;51.466;5.478;2023-02-21T01:56:19;101924.47;;;19.89;47.04
68366;BME280;55283;51.466;5.478;2023-02-21T01:59:04;101922.06;;;19.91;47.01
68366;BME280;55283;51.466;5.478;2023-02-21T02:05:09;101917.25;;;19.92;46.87
68366;BME280;55283;51.466;5.478;2023-02-21T02:07:54;101907.69;;;19.89;47.06
68366;BME280;55283;51.466;5.478;2023-02-21T02:10:40;101904.50;;;19.87;46.98
68366;BME280;55283;51.466;5.478;2023-02-21T02:13:57;101905.28;;;19.91;47.04
68366;BME280;55283;51.466;5.478;2023-02-21T02:16:35;101899.25;;;19.93;46.98
68366;BME280;55283;51.466;5.478;2023-02-21T02:27:47;101895.31;;;19.90;46.96
68366;BME280;55283;51.466;5.478;2023-02-21T02:36:56;101892.50;;;19.90;46.72
68366;BME280;55283;51.466;5.478;2023-02-21T02:39:30;101878.13;;;19.88;47.00
68366;BME280;55283;51.466;5.478;2023-02-21T02:42:10;101877.34;;;19.87;46.97
68366;BME280;55283;51.466;5.478;2023-02-21T02:44:45;101875.72;;;19.90;46.79
68366;BME280;55283;51.466;5.478;2023-02-21T02:47:18;101872.13;;;19.86;46.84
68366;BME280;55283;51.466;5.478;2023-02-21T02:49:49;101867.69;;;19.92;46.83
68366;BME280;55283;51.466;5.478;2023-02-21T02:52:15;101871.69;;;19.91;46.88
68366;BME280;55283;51.466;5.478;2023-02-21T02:54:41;101864.53;;;19.90;46.81
68366;BME280;55283;51.466;5.478;2023-02-21T02:57:08;101864.53;;;19.90;46.71
68366;BME280;55283;51.466;5.478;2023-02-21T02:59:39;101859.72;;;19.90;46.82
68366;BME280;55283;51.466;5.478;2023-02-21T03:15:51;101859.28;;;19.92;46.97
68366;BME280;55283;51.466;5.478;2023-02-21T03:21:07;101863.69;;;19.93;46.71
68366;BME280;55283;51.466;5.478;2023-02-21T03:23:36;101855.31;;;19.89;46.88
68366;BME280;55283;51.466;5.478;2023-02-21T03:26:05;101877.31;;;19.91;46.77
68366;BME280;55283;51.466;5.478;2023-02-21T03:28:32;101879.66;;;19.93;47.00
68366;BME280;55283;51.466;5.478;2023-02-21T03:30:59;101874.06;;;19.93;46.91
68366;BME280;55283;51.466;5.478;2023-02-21T03:33:26;101868.47;;;19.93;46.98
68366;BME280;55283;51.466;5.478;2023-02-21T03:35:52;101863.69;;;19.93;46.81
68366;BME280;55283;51.466;5.478;2023-02-21T03:38:18;101854.13;;;19.87;47.03
68366;BME280;55283;51.466;5.478;2023-02-21T03:40:43;101852.50;;;19.93;46.93
68366;BME280;55283;51.466;5.478;2023-02-21T03:43:09;101859.28;;;19.92;46.99
68366;BME280;55283;51.466;5.478;2023-02-21T03:45:35;101855.31;;;19.93;46.88
68366;BME280;55283;51.466;5.478;2023-02-21T03:48:01;101864.53;;;19.90;46.91
68366;BME280;55283;51.466;5.478;2023-02-21T03:50:26;101856.53;;;19.88;46.66
68366;BME280;55283;51.466;5.478;2023-02-21T03:52:52;101861.31;;;19.92;46.95
68366;BME280;55283;51.466;5.478;2023-02-21T03:55:18;101862.09;;;19.92;46.91
68366;BME280;55283;51.466;5.478;2023-02-21T03:57:44;101864.50;;;19.94;46.77
68366;BME280;55283;51.466;5.478;2023-02-21T04:00:10;101855.75;;;19.88;46.99
68366;BME280;55283;51.466;5.478;2023-02-21T04:02:36;101871.69;;;19.91;46.94
68366;BME280;55283;51.466;5.478;2023-02-21T04:05:01;101868.50;;;19.89;46.85
68366;BME280;55283;51.466;5.478;2023-02-21T04:07:27;101870.13;;;19.90;46.99
68366;BME280;55283;51.466;5.478;2023-02-21T04:09:52;101865.28;;;19.94;46.78
68366;BME280;55283;51.466;5.478;2023-02-21T04:12:18;101857.72;;;19.91;46.67
68366;BME280;55283;51.466;5.478;2023-02-21T04:14:43;101856.50;;;19.92;46.71
68366;BME280;55283;51.466;5.478;2023-02-21T04:17:09;101864.53;;;19.90;46.62
68366;BME280;55283;51.466;5.478;2023-02-21T04:19:34;101857.28;;;19.93;46.73
68366;BME280;55283;51.466;5.478;2023-02-21T04:22:00;101856.50;;;19.92;46.84
68366;BME280;55283;51.466;5.478;2023-02-21T04:24:25;101850.09;;;19.92;46.73
68366;BME280;55283;51.466;5.478;2023-02-21T04:26:51;101854.47;;;19.93;46.71
68366;BME280;55283;51.466;5.478;2023-02-21T04:29:16;101852.50;;;19.93;46.63
68366;BME280;55283;51.466;5.478;2023-02-21T04:31:42;101847.31;;;19.92;46.88
68366;BME280;55283;51.466;5.478;2023-02-21T04:34:07;101850.09;;;19.92;46.55
68366;BME280;55283;51.466;5.478;2023-02-21T04:36:33;101843.31;;;19.89;46.68
68366;BME280;55283;51.466;5.478;2023-02-21T04:38:58;101834.19;;;19.85;46.67
68366;BME280;55283;51.466;5.478;2023-02-21T04:41:23;101835.75;;;19.86;46.94
68366;BME280;55283;51.466;5.478;2023-02-21T04:43:49;101847.75;;;19.90;46.88
68366;BME280;55283;51.466;5.478;2023-02-21T04:46:16;101834.97;;;19.85;46.81
68366;BME280;55283;51.466;5.478;2023-02-21T04:48:46;101831.75;;;19.87;46.81
68366;BME280;55283;51.466;5.478;2023-02-21T04:51:12;101832.97;;;19.86;46.64
68366;BME280;55283;51.466;5.478;2023-02-21T04:53:38;101834.53;;;19.90;46.73
68366;BME280;55283;51.466;5.478;2023-02-21T04:56:04;101839.69;;;19.92;46.45
68366;BME280;55283;51.466;5.478;2023-02-21T04:58:30;101832.56;;;19.87;46.92
68366;BME280;55283;51.466;5.478;2023-02-21T05:00:55;101829.34;;;19.89;46.82
68366;BME280;55283;51.466;5.478;2023-02-21T05:03:21;101831.75;;;19.90;46.82
68366;BME280;55283;51.466;5.478;2023-02-21T05:05:48;101833.34;;;19.88;46.86
68366;BME280;55283;51.466;5.478;2023-02-21T05:08:13;101840.97;;;19.87;46.66
68366;BME280;55283;51.466;5.478;2023-02-21T05:10:39;101842.53;;;19.88;46.85
68366;BME280;55283;51.466;5.478;2023-02-21T05:13:04;101835.75;;;19.86;46.81
68366;BME280;55283;51.466;5.478;2023-02-21T05:15:29;101838.56;;;19.86;46.94
68366;BME280;55283;51.466;5.478;2023-02-21T05:17:55;101823.78;;;19.85;46.90
68366;BME280;55283;51.466;5.478;2023-02-21T05:20:20;101823.00;;;19.85;46.68
68366;BME280;55283;51.466;5.478;2023-02-21T05:22:47;101832.19;;;19.85;46.82
68366;BME280;55283;51.466;5.478;2023-02-21T05:25:17;101828.59;;;19.85;46.71
68366;BME280;55283;51.466;5.478;2023-02-21T05:27:43;101836.56;;;19.86;46.84
68366;BME280;55283;51.466;5.478;2023-02-21T05:30:10;101833.78;;;19.83;46.88
68366;BME280;55283;51.466;5.478;2023-02-21T05:32:35;101833.41;;;19.81;46.80
68366;BME280;55283;51.466;5.478;2023-02-21T05:35:01;101848.53;;;19.87;46.84
68366;BME280;55283;51.466;5.478;2023-02-21T05:37:26;101854.13;;;19.87;46.84
68366;BME280;55283;51.466;5.478;2023-02-21T05:39:52;101849.75;;;19.86;46.87
68366;BME280;55283;51.466;5.478;2023-02-21T05:42:17;101845.78;;;19.83;46.76
68366;BME280;55283;51.466;5.478;2023-02-21T05:44:44;101854.94;;;19.87;46.79
68366;BME280;55283;51.466;5.478;2023-02-21T05:47:10;101845.78;;;19.83;46.78
68366;BME280;55283;51.466;5.478;2023-02-21T05:49:35;101844.97;;;19.83;46.97
68366;BME280;55283;51.466;5.478;2023-02-21T05:52:01;101844.97;;;19.83;46.71
68366;BME280;55283;51.466;5.478;2023-02-21T05:54:26;101849.34;;;19.87;46.73
68366;BME280;55283;51.466;5.478;2023-02-21T05:56:52;101843.38;;;19.85;46.81
68366;BME280;55283;51.466;5.478;2023-02-21T05:59:19;101848.19;;;19.85;46.70
68366;BME280;55283;51.466;5.478;2023-02-21T06:01:45;101845.72;;;19.87;46.63
68366;BME280;55283;51.466;5.478;2023-02-21T06:04:11;101845.38;;;19.85;46.62
68366;BME280;55283;51.466;5.478;2023-02-21T06:06:37;101857.34;;;19.85;46.69
68366;BME280;55283;51.466;5.478;2023-02-21T06:09:03;101849.34;;;19.87;46.76
68366;BME280;55283;51.466;5.478;2023-02-21T06:11:30;101855.34;;;19.86;46.91
68366;BME280;55283;51.466;5.478;2023-02-21T06:13:59;101862.16;;;19.85;46.97
68366;BME280;55283;51.466;5.478;2023-02-21T06:16:25;101866.16;;;19.84;46.95
68366;BME280;55283;51.466;5.478;2023-02-21T06:18:52;101860.94;;;19.86;46.58
68366;BME280;55283;51.466;5.478;2023-02-21T06:21:18;101845.41;;;19.81;46.80
68366;BME280;55283;51.466;5.478;2023-02-21T06:23:43;101852.97;;;19.84;46.77
68366;BME280;55283;51.466;5.478;2023-02-21T06:26:09;101849.00;;;19.82;46.85
68366;BME280;55283;51.466;5.478;2023-02-21T06:28:34;101855.78;;;19.81;46.79
68366;BME280;55283;51.466;5.478;2023-02-21T06:31:00;101851.00;;;19.81;47.15
68366;BME280;55283;51.466;5.478;2023-02-21T06:33:26;101850.19;;;19.84;47.17
68366;BME280;55283;51.466;5.478;2023-02-21T06:35:51;101851.75;;;19.85;47.14
68366;BME280;55283;51.466;5.478;2023-02-21T06:38:17;101856.53;;;19.88;47.31
68366;BME280;55283;51.466;5.478;2023-02-21T06:40:42;101866.16;;;19.84;47.72
68366;BME280;55283;51.466;5.478;2023-02-21T06:43:08;101863.00;;;19.78;47.78
68366;BME280;55283;51.466;5.478;2023-02-21T06:45:33;101854.22;;;19.80;48.17
68366;BME280;55283;51.466;5.478;2023-02-21T06:47:59;101864.19;;;19.81;48.35
68366;BME280;55283;51.466;5.478;2023-02-21T06:50:24;101865.78;;;19.82;47.95
68366;BME280;55283;51.466;5.478;2023-02-21T06:52:50;101860.19;;;19.82;48.12
68366;BME280;55283;51.466;5.478;2023-02-21T06:55:22;101855.31;;;19.93;48.07
68366;BME280;55283;51.466;5.478;2023-02-21T06:57:48;101852.44;;;20.00;48.07
68366;BME280;55283;51.466;5.478;2023-02-21T07:00:15;101854.88;;;19.95;48.17
68366;BME280;55283;51.466;5.478;2023-02-21T07:02:41;101863.69;;;19.93;48.63
68366;BME280;55283;51.466;5.478;2023-02-21T07:05:07;101873.16;;;20.06;47.71
68366;BME280;55283;51.466;5.478;2023-02-21T07:07:33;101855.56;;;20.06;48.42
68366;BME280;55283;51.466;5.478;2023-02-21T07:09:58;101857.94;;;20.07;48.52
68366;BME280;55283;51.466;5.478;2023-02-21T07:12:24;101851.19;;;20.05;48.71
68366;BME280;55283;51.466;5.478;2023-02-21T07:14:53;101865.97;;;20.05;48.22
68366;BME280;55283;51.466;5.478;2023-02-21T07:17:18;101865.59;;;20.03;48.75
68366;BME280;55283;51.466;5.478;2023-02-21T07:19:44;101865.53;;;20.10;48.61
68366;BME280;55283;51.466;5.478;2023-02-21T07:22:10;101857.59;;;20.05;48.71
68366;BME280;55283;51.466;5.478;2023-02-21T07:24:35;101858.72;;;20.11;48.76
68366;BME280;55283;51.466;5.478;2023-02-21T07:27:01;101859.56;;;20.08;48.67
68366;BME280;55283;51.466;5.478;2023-02-21T07:29:27;101861.13;;;20.09;48.59
68366;BME280;55283;51.466;5.478;2023-02-21T07:31:52;101856.81;;;20.01;48.79
68366;BME280;55283;51.466;5.478;2023-02-21T07:34:17;101863.63;;;20.00;49.06
68366;BME280;55283;51.466;5.478;2023-02-21T07:36:44;101862.03;;;19.99;49.25
68366;BME280;55283;51.466;5.478;2023-02-21T07:39:10;101854.84;;;19.98;49.16
68366;BME280;55283;51.466;5.478;2023-02-21T07:41:35;101859.25;;;19.99;49.10
68366;BME280;55283;51.466;5.478;2023-02-21T07:44:01;101870.34;;;20.06;49.01
68366;BME280;55283;51.466;5.478;2023-02-21T07:46:27;101861.56;;;20.04;49.21
68366;BME280;55283;51.466;5.478;2023-02-21T07:48:52;101858.81;;;20.01;49.33
68366;BME280;55283;51.466;5.478;2023-02-21T07:51:18;101870.06;;;19.97;49.47
68366;BME280;55283;51.466;5.478;2023-02-21T07:53:43;101872.41;;;20.02;49.37
68366;BME280;55283;51.466;5.478;2023-02-21T07:56:09;101862.88;;;19.96;49.19
68366;BME280;55283;51.466;5.478;2023-02-21T07:58:35;101862.03;;;19.99;48.91
68366;BME280;55283;51.466;5.478;2023-02-21T08:01:02;101866.03;;;20.02;48.60
68366;BME280;55283;51.466;5.478;2023-02-21T08:03:29;101859.59;;;20.01;49.04
68366;BME280;55283;51.466;5.478;2023-02-21T08:05:54;101859.59;;;20.01;48.87
68366;BME280;55283;51.466;5.478;2023-02-21T08:08:20;101859.25;;;19.99;48.92
68366;BME280;55283;51.466;5.478;2023-02-21T08:10:47;101855.25;;;19.97;48.84
68366;BME280;55283;51.466;5.478;2023-02-21T08:13:13;101868.38;;;20.03;48.87
68366;BME280;55283;51.466;5.478;2023-02-21T08:15:39;101866.81;;;20.02;48.91
68366;BME280;55283;51.466;5.478;2023-02-21T08:18:04;101863.22;;;20.02;48.73
68366;BME280;55283;51.466;5.478;2023-02-21T08:20:30;101858.09;;;19.93;48.93
68366;BME280;55283;51.466;5.478;2023-02-21T08:22:56;101860.81;;;20.00;48.79
68366;BME280;55283;51.466;5.478;2023-02-21T08:25:21;101868.44;;;20.00;48.75
68366;BME280;55283;51.466;5.478;2023-02-21T08:27:47;101875.22;;;20.02;48.67
68366;BME280;55283;51.466;5.478;2023-02-21T08:30:17;101868.34;;;20.07;48.63
68366;BME280;55283;51.466;5.478;2023-02-21T08:32:43;101847.63;;;20.01;48.94
68366;BME280;55283;51.466;5.478;2023-02-21T08:35:13;101847.25;;;19.99;48.59
68366;BME280;55283;51.466;5.478;2023-02-21T08:37:39;101852.03;;;20.02;48.71
68366;BME280;55283;51.466;5.478;2023-02-21T08:40:10;101861.25;;;19.95;48.85
68366;BME280;55283;51.466;5.478;2023-02-21T08:42:35;101863.69;;;19.93;49.04
68366;BME280;55283;51.466;5.478;2023-02-21T08:45:01;101866.50;;;19.93;48.77
68366;BME280;55283;51.466;5.478;2023-02-21T08:47:26;101862.84;;;20.00;48.63
68366;BME280;55283;51.466;5.478;2023-02-21T08:49:52;101854.00;;;20.01;48.74
68366;BME280;55283;51.466;5.478;2023-02-21T08:52:18;101847.66;;;19.97;48.98
68366;BME280;55283;51.466;5.478;2023-02-21T08:54:45;101858.09;;;19.93;49.42
68366;BME280;55283;51.466;5.478;2023-02-21T08:57:10;101864.06;;;19.95;48.78
68366;BME280;55283;51.466;5.478;2023-02-21T08:59:43;101863.22;;;19.98;48.72
68366;BME280;55283;51.466;5.478;2023-02-21T09:02:22;101855.31;;;19.93;49.19
68366;BME280;55283;51.466;5.478;2023-02-21T09:04:51;101857.66;;;19.95;48.87
68366;BME280;55283;51.466;5.478;2023-02-21T09:07:19;101857.63;;;19.98;48.86
68366;BME280;55283;51.466;5.478;2023-02-21T09:09:45;101834.53;;;19.90;48.90
68366;BME280;55283;51.466;5.478;2023-02-21T09:12:11;101844.78;;;20.04;48.92
68366;BME280;55283;51.466;5.478;2023-02-21T09:14:39;101851.63;;;20.00;49.18
68366;BME280;55283;51.466;5.478;2023-02-21T09:17:06;101838.44;;;20.00;48.99
68366;BME280;55283;51.466;5.478;2023-02-21T09:19:32;101852.38;;;20.04;48.88
68366;BME280;55283;51.466;5.478;2023-02-21T09:21:57;101844.00;;;20.04;48.62
68366;BME280;55283;51.466;5.478;2023-02-21T09:24:25;101847.63;;;20.01;48.84
68366;BME280;55283;51.466;5.478;2023-02-21T09:26:55;101833.66;;;19.97;49.38
68366;BME280;55283;51.466;5.478;2023-02-21T09:29:26;101837.59;;;20.03;48.96
68366;BME280;55283;51.466;5.478;2023-02-21T09:31:52;101838.81;;;20.02;48.91
68366;BME280;55283;51.466;5.478;2023-02-21T09:34:17;101832.00;;;20.03;48.83
68366;BME280;55283;51.466;5.478;2023-02-21T09:36:43;101836.81;;;20.03;48.94
68366;BME280;55283;51.466;5.478;2023-02-21T09:39:09;101843.28;;;19.96;49.22
68366;BME280;55283;51.466;5.478;2023-02-21T09:41:35;101832.09;;;19.96;49.55
68366;BME280;55283;51.466;5.478;2023-02-21T09:44:03;101831.66;;;19.98;49.26
68366;BME280;55283;51.466;5.478;2023-02-21T09:46:37;101825.28;;;19.97;49.27
68366;BME280;55283;51.466;5.478;2023-02-21T09:49:07;101825.22;;;20.01;48.97
68366;BME280;55283;51.466;5.478;2023-02-21T09:51:36;101835.59;;;20.04;49.00
68366;BME280;55283;51.466;5.478;2023-02-21T09:54:12;101838.44;;;20.00;49.11
68366;BME280;55283;51.466;5.478;2023-02-21T09:56:42;101832.00;;;20.03;48.87
68366;BME280;55283;51.466;5.478;2023-02-21T09:59:12;101830.00;;;20.04;49.17
68366;BME280;55283;51.466;5.478;2023-02-21T10:02:00;101833.66;;;19.97;47.18
68366;BME280;55283;51.466;5.478;2023-02-21T10:07:10;101844.59;;;19.84;48.39
68366;BME280;55283;51.466;5.478;2023-02-21T10:10:41;101846.13;;;19.89;48.85
68366;BME280;55283;51.466;5.478;2023-02-21T10:15:43;101838.50;;;19.93;49.03
68366;BME280;55283;51.466;5.478;2023-02-21T10:21:02;101843.63;;;19.98;49.36
68366;BME280;55283;51.466;5.478;2023-02-21T10:23:37;101850.38;;;20.04;49.08
68366;BME280;55283;51.466;5.478;2023-02-21T10:26:09;101850.41;;;20.01;49.01
68366;BME280;55283;51.466;5.478;2023-02-21T10:28:36;101852.03;;;20.02;49.37
68366;BME280;55283;51.466;5.478;2023-02-21T10:31:15;101836.53;;;19.90;49.44
68366;BME280;55283;51.466;5.478;2023-02-21T10:33:42;101841.63;;;20.02;49.54
68366;BME280;55283;51.466;5.478;2023-02-21T10:36:19;101843.28;;;19.93;49.97
68366;BME280;55283;51.466;5.478;2023-02-21T10:39:03;101846.03;;;20.00;49.78
68366;BME280;55283;51.466;5.478;2023-02-21T10:41:33;101846.00;;;20.03;49.37
68366;BME280;55283;51.466;5.478;2023-02-21T10:44:08;101841.63;;;20.02;49.20
68366;BME280;55283;51.466;5.478;2023-02-21T10:46:54;101852.81;;;20.02;48.84
68366;BME280;55283;51.466;5.478;2023-02-21T10:52:20;101853.66;;;19.96;48.59
68366;BME280;55283;51.466;5.478;2023-02-21T10:57:30;101846.81;;;20.00;49.11
68366;BME280;55283;51.466;5.478;2023-02-21T10:59:57;101842.94;;;19.90;49.25
68366;BME280;55283;51.466;5.478;2023-02-21T11:02:31;101835.72;;;19.93;48.96
68366;BME280;55283;51.466;5.478;2023-02-21T11:05:14;101846.03;;;20.00;49.03
68366;BME280;55283;51.466;5.478;2023-02-21T11:07:55;101836.84;;;19.99;48.89
68366;BME280;55283;51.466;5.478;2023-02-21T11:10:30;101826.84;;;20.02;48.98
68366;BME280;55283;51.466;5.478;2023-02-21T11:13:19;101825.31;;;19.94;49.35
68366;BME280;55283;51.466;5.478;2023-02-21T11:15:46;101820.56;;;19.87;50.13
68366;BME280;55283;51.466;5.478;2023-02-21T11:18:22;101822.69;;;19.72;50.28
68366;BME280;55283;51.466;5.478;2023-02-21T11:20:49;101813.13;;;19.70;50.55
68366;BME280;55283;51.466;5.478;2023-02-21T11:23:18;101811.78;;;19.85;50.09
68366;BME280;55283;51.466;5.478;2023-02-21T11:25:44;101807.78;;;19.86;50.16
68366;BME280;55283;51.466;5.478;2023-02-21T11:30:46;101813.78;;;19.88;49.61
68366;BME280;55283;51.466;5.478;2023-02-21T11:33:19;101804.25;;;19.78;49.71
68366;BME280;55283;51.466;5.478;2023-02-21T11:35:47;101798.69;;;19.75;50.41
68366;BME280;55283;51.466;5.478;2023-02-21T11:38:34;101803.09;;;19.72;50.25
68366;BME280;55283;51.466;5.478;2023-02-21T11:41:02;101802.66;;;19.77;50.18
68366;BME280;55283;51.466;5.478;2023-02-21T11:43:32;101789.03;;;19.83;50.45
68366;BME280;55283;51.466;5.478;2023-02-21T11:46:09;101802.28;;;19.79;50.37
68366;BME280;55283;51.466;5.478;2023-02-21T11:48:49;101793.38;;;19.87;50.34
68366;BME280;55283;51.466;5.478;2023-02-21T11:51:48;101787.25;;;20.00;50.38
68366;BME280;55283;51.466;5.478;2023-02-21T11:54:12;101786.38;;;20.06;50.31
68366;BME280;55283;51.466;5.478;2023-02-21T11:59:45;101782.84;;;20.02;50.78
68366;BME280;55283;51.466;5.478;2023-02-21T12:05:22;101786.00;;;20.08;50.29
68366;BME280;55283;51.466;5.478;2023-02-21T12:40:14;101750.34;;;20.12;48.71
68366;BME280;55283;51.466;5.478;2023-02-21T12:42:45;101749.13;;;20.13;47.56
68366;BME280;55283;51.466;5.478;2023-02-21T12:50:52;101740.38;;;20.07;48.92
68366;BME280;55283;51.466;5.478;2023-02-21T12:53:47;101742.00;;;20.08;48.69
68366;BME280;55283;51.466;5.478;2023-02-21T12:58:50;101745.59;;;20.09;48.69
68366;BME280;55283;51.466;5.478;2023-02-21T13:01:25;101744.78;;;20.08;48.83
68366;BME280;55283;51.466;5.478;2023-02-21T13:06:34;101739.94;;;20.12;49.12
68366;BME280;55283;51.466;5.478;2023-02-21T13:09:24;101729.19;;;20.07;48.97
68366;BME280;55283;51.466;5.478;2023-02-21T13:12:06;101731.97;;;20.11;49.04
68366;BME280;55283;51.466;5.478;2023-02-21T13:17:15;101731.97;;;20.11;49.15
68366;BME280;55283;51.466;5.478;2023-02-21T13:20:05;101724.38;;;20.11;49.15
68366;BME280;55283;51.466;5.478;2023-02-21T13:28:23;101726.38;;;20.11;49.23
68366;BME280;55283;51.466;5.478;2023-02-21T13:31:00;101722.41;;;20.08;48.98
68366;BME280;55283;51.466;5.478;2023-02-21T13:36:00;101704.34;;;20.13;48.94
68366;BME280;55283;51.466;5.478;2023-02-21T13:38:28;101705.94;;;20.14;49.06
68366;BME280;55283;51.466;5.478;2023-02-21T13:41:06;101701.53;;;20.13;48.87
68366;BME280;55283;51.466;5.478;2023-02-21T13:43:35;101695.91;;;20.17;48.93
68366;BME280;55283;51.466;5.478;2023-02-21T13:57:47;101694.75;;;20.14;48.88
68366;BME280;55283;51.466;5.478;2023-02-21T14:10:48;101693.47;;;20.19;48.34
68366;BME280;55283;51.466;5.478;2023-02-21T14:15:48;101697.09;;;20.19;48.57
68366;BME280;55283;51.466;5.478;2023-02-21T14:20:48;101679.13;;;20.17;47.97
68366;BME280;55283;51.466;5.478;2023-02-21T14:23:16;101680.75;;;20.14;47.83
68366;BME280;55283;51.466;5.478;2023-02-21T14:25:53;101683.59;;;20.10;48.09
68366;BME280;55283;51.466;5.478;2023-02-21T14:28:48;101692.34;;;20.12;48.31
68366;BME280;55283;51.466;5.478;2023-02-21T14:31:14;101675.56;;;20.12;48.62
68366;BME280;55283;51.466;5.478;2023-02-21T14:33:59;101682.00;;;20.09;48.78
68366;BME280;55283;51.466;5.478;2023-02-21T14:36:27;101675.66;;;20.05;48.74
68366;BME280;55283;51.466;5.478;2023-02-21T14:38:53;101674.88;;;20.05;48.55
68366;BME280;55283;51.466;5.478;2023-02-21T14:41:49;101670.38;;;20.11;48.77
68366;BME280;55283;51.466;5.478;2023-02-21T14:44:32;101669.13;;;20.16;48.26
68366;BME280;55283;51.466;5.478;2023-02-21T15:01:34;101655.16;;;20.12;48.51
68366;BME280;55283;51.466;5.478;2023-02-21T15:04:22;101655.56;;;20.14;48.92
68366;BME280;55283;51.466;5.478;2023-02-21T15:07:15;101658.34;;;20.14;48.82
68366;BME280;55283;51.466;5.478;2023-02-21T15:09:44;101654.38;;;20.11;48.67
68366;BME280;55283;51.466;5.478;2023-02-21T15:12:16;101643.97;;;20.12;49.01
68366;BME280;55283;51.466;5.478;2023-02-21T15:14:48;101658.34;;;20.14;48.50
68366;BME280;55283;51.466;5.478;2023-02-21T15:17:23;101647.88;;;20.18;48.44
68366;BME280;55283;51.466;5.478;2023-02-21T15:20:15;101650.38;;;20.12;48.53
68366;BME280;55283;51.466;5.478;2023-02-21T15:22:41;101651.59;;;20.11;48.67
68366;BME280;55283;51.466;5.478;2023-02-21T15:27:33;101660.78;;;20.12;48.62
68366;BME280;55283;51.466;5.478;2023-02-21T15:30:36;101654.78;;;20.13;48.57
68366;BME280;55283;51.466;5.478;2023-02-21T15:35:41;101644.72;;;20.16;48.48
68366;BME280;55283;51.466;5.478;2023-02-21T15:38:17;101643.56;;;20.13;48.56
68366;BME280;55283;51.466;5.478;2023-02-21T15:40:44;101643.13;;;20.15;48.61
68366;BME280;55283;51.466;5.478;2023-02-21T15:43:23;101643.56;;;20.13;48.44
68366;BME280;55283;51.466;5.478;2023-02-21T15:45:51;101643.50;;;20.17;48.19
68366;BME280;55283;51.466;5.478;2023-02-21T15:48:19;101641.88;;;20.20;48.39
68366;BME280;55283;51.466;5.478;2023-02-21T15:50:45;101647.84;;;20.22;48.34
68366;BME280;55283;51.466;5.478;2023-02-21T15:53:24;101643.50;;;20.17;48.33
68366;BME280;55283;51.466;5.478;2023-02-21T15:55:52;101639.50;;;20.18;48.33